Time;durP1;ratioP1;P1;durP2;ratioP2;P2;SDS_P1;SDS_P2;PMS_P1;PMS_P2;Temp;Humidity;BMP_temperature;BMP_pressure;BME280_temperature;BME280_humidity;BME280_pressure;Samples;Min_cycle;Max_cycle;Signal;HPM_P1;HPM_P2
2023/10/26 00:03:35;;;;;;;3.23;1.60;;;3.10;99.90;;;;;;1979652;71;27033;-90
2023/10/26 00:06:24;;;;;;;8.60;2.10;;;3.10;99.90;;;;;;1957477;72;25280;-90
2023/10/26 00:09:13;;;;;;;3.37;1.70;;;3.10;99.90;;;;;;2037655;69;25632;-89
2023/10/26 00:12:01;;;;;;;1.00;0.90;;;3.00;99.90;;;;;;2042249;69;25156;-89
2023/10/26 00:14:49;;;;;;;4.20;1.60;;;3.00;99.90;;;;;;2034308;69;25248;-90
2023/10/26 00:17:39;;;;;;;2.30;1.60;;;3.10;99.90;;;;;;2039310;69;25180;-90
2023/10/26 00:20:28;;;;;;;3.33;1.87;;;3.10;99.90;;;;;;2044080;69;25690;-89
2023/10/26 00:23:17;;;;;;;1.20;1.10;;;3.00;99.90;;;;;;2048241;69;25203;-90
2023/10/26 00:26:06;;;;;;;1.70;1.13;;;3.10;99.90;;;;;;2037877;69;25252;-90
2023/10/26 00:59:46;;;;;;;1.90;1.73;;;3.00;99.90;;;;;;1970089;71;27022;-89
2023/10/26 01:02:35;;;;;;;1.40;1.07;;;3.00;99.90;;;;;;1907358;74;25166;-90
2023/10/26 01:05:24;;;;;;;3.10;1.53;;;3.00;99.90;;;;;;1910816;73;25205;-90
2023/10/26 01:08:13;;;;;;;3.53;1.37;;;3.00;99.90;;;;;;1908323;74;25146;-90
2023/10/26 01:11:01;;;;;;;3.67;1.87;;;3.00;99.90;;;;;;1930458;73;25245;-90
2023/10/26 01:13:51;;;;;;;5.47;1.70;;;3.00;99.90;;;;;;1921607;73;25273;-90
2023/10/26 01:48:37;;;;;;;1.33;1.17;;;3.00;99.90;;;;;;2019356;69;27292;-90
2023/10/26 01:51:26;;;;;;;3.17;1.67;;;3.00;99.90;;;;;;1977191;72;25133;-90
2023/10/26 01:54:14;;;;;;;2.80;1.50;;;3.00;99.90;;;;;;2053718;68;25196;-90
2023/10/26 01:57:03;;;;;;;4.83;1.50;;;3.00;99.90;;;;;;2053593;69;25305;-90
2023/10/26 01:59:55;;;;;;;4.53;1.70;;;3.00;99.90;;;;;;2051666;68;25217;-90
2023/10/26 02:02:42;;;;;;;1.87;1.63;;;3.00;99.90;;;;;;2054577;68;25633;-90
2023/10/26 02:05:31;;;;;;;2.10;1.40;;;3.00;99.90;;;;;;2064059;69;25778;-88
2023/10/26 02:08:20;;;;;;;2.93;1.60;;;3.00;99.90;;;;;;2047449;69;25190;-90
2023/10/26 02:11:09;;;;;;;3.80;1.97;;;2.90;99.90;;;;;;2011035;69;25321;-90
2023/10/26 02:13:58;;;;;;;2.33;1.73;;;3.00;99.90;;;;;;2048096;69;25542;-88
2023/10/26 02:30:25;;;;;;;2.00;1.80;;;2.90;99.90;;;;;;1862088;75;27168;-88
2023/10/26 02:36:33;;;;;;;2.27;1.60;;;2.90;99.90;;;;;;1983270;71;27094;-90
2023/10/26 02:39:22;;;;;;;4.20;1.90;;;2.90;99.90;;;;;;1962949;72;25644;-90
2023/10/26 02:42:11;;;;;;;4.13;1.90;;;2.90;99.90;;;;;;2036925;69;25328;-90
2023/10/26 02:44:59;;;;;;;1.53;1.43;;;2.90;99.90;;;;;;2020926;70;25722;-90
2023/10/26 02:47:48;;;;;;;6.97;2.07;;;2.80;99.90;;;;;;2011170;70;25277;-90
2023/10/26 02:50:37;;;;;;;5.27;1.90;;;2.80;99.90;;;;;;2025368;70;25612;-90
2023/10/26 02:53:26;;;;;;;2.10;1.90;;;2.80;99.90;;;;;;2018779;69;25284;-90
2023/10/26 02:56:14;;;;;;;3.17;1.80;;;2.70;99.90;;;;;;2028123;69;25177;-89
2023/10/26 02:59:03;;;;;;;5.53;2.30;;;2.70;99.90;;;;;;2020907;70;25182;-89
2023/10/26 03:05:40;;;;;;;1.50;1.40;;;2.80;99.90;;;;;;2033343;70;26379;-89
2023/10/26 03:11:14;;;;;;;5.53;1.97;;;2.70;99.90;;;;;;1955124;72;26958;-90
2023/10/26 03:14:02;;;;;;;5.60;2.20;;;2.60;99.90;;;;;;1946704;72;25288;-90
2023/10/26 03:19:36;;;;;;;5.17;2.17;;;2.50;99.90;;;;;;1926217;74;27128;-90
2023/10/26 03:22:24;;;;;;;4.83;2.30;;;2.40;99.90;;;;;;1894329;74;25262;-90
2023/10/26 03:25:16;;;;;;;3.30;2.40;;;2.40;99.90;;;;;;1911503;74;25179;-90
2023/10/26 03:28:05;;;;;;;3.37;2.37;;;2.40;99.90;;;;;;1902676;75;25289;-90
2023/10/26 03:30:53;;;;;;;6.70;2.50;;;2.30;99.90;;;;;;1902217;75;25791;-90
2023/10/26 03:33:41;;;;;;;3.70;1.73;;;2.30;99.90;;;;;;1909733;74;25220;-90
2023/10/26 03:36:30;;;;;;;3.83;2.10;;;2.30;99.90;;;;;;1902179;75;25253;-90
2023/10/26 03:39:19;;;;;;;8.07;2.57;;;2.30;99.90;;;;;;1888132;74;25190;-90
2023/10/26 03:42:08;;;;;;;2.87;2.17;;;2.30;99.90;;;;;;1910622;74;25766;-90
2023/10/26 03:44:59;;;;;;;7.00;2.57;;;2.20;99.90;;;;;;1907291;74;25699;-90
2023/10/26 03:47:48;;;;;;;3.93;2.30;;;2.20;99.90;;;;;;1901393;74;25279;-90
2023/10/26 04:04:06;;;;;;;4.33;2.20;;;2.10;99.90;;;;;;1945686;71;27032;-90
2023/10/26 04:10:11;;;;;;;7.83;2.47;;;2.00;99.90;;;;;;2068431;68;26276;-90
2023/10/26 04:13:00;;;;;;;5.23;2.43;;;2.00;99.90;;;;;;2003276;69;25237;-90
2023/10/26 04:15:50;;;;;;;4.37;2.67;;;2.00;99.90;;;;;;2007529;70;25300;-90
2023/10/26 04:18:39;;;;;;;3.70;2.70;;;2.10;99.90;;;;;;2044285;69;25204;-90
2023/10/26 04:21:28;;;;;;;8.90;2.60;;;2.10;99.90;;;;;;2020929;69;25150;-90
2023/10/26 04:24:17;;;;;;;6.60;2.90;;;2.10;99.90;;;;;;1987202;70;25234;-89
2023/10/26 04:27:06;;;;;;;4.20;2.77;;;2.10;99.90;;;;;;1990457;70;25312;-89
2023/10/26 04:29:55;;;;;;;4.33;2.43;;;2.20;99.90;;;;;;1983106;70;25179;-89
2023/10/26 04:32:44;;;;;;;3.57;2.03;;;2.20;99.90;;;;;;1983280;70;25230;-89
2023/10/26 04:35:32;;;;;;;3.50;1.80;;;2.20;99.90;;;;;;1982959;70;25202;-89
2023/10/26 04:38:21;;;;;;;5.50;2.50;;;2.20;99.90;;;;;;1978412;70;25575;-89
2023/10/26 04:43:55;;;;;;;4.40;2.60;;;2.10;99.90;;;;;;1944521;72;27064;-90
2023/10/26 04:46:44;;;;;;;4.73;2.40;;;2.10;99.90;;;;;;1898241;73;25237;-90
2023/10/26 04:49:33;;;;;;;8.83;2.77;;;2.20;99.90;;;;;;1898890;73;25281;-90
2023/10/26 04:52:22;;;;;;;3.13;2.30;;;2.10;99.90;;;;;;1899605;74;25334;-90
2023/10/26 04:55:11;;;;;;;3.83;2.23;;;2.10;99.90;;;;;;1913440;75;25309;-90
2023/10/26 05:01:49;;;;;;;10.27;2.80;;;2.10;99.90;;;;;;1989161;71;27025;-90
2023/10/26 05:04:38;;;;;;;2.83;2.10;;;2.20;99.90;;;;;;2015422;69;25140;-90
2023/10/26 05:07:26;;;;;;;5.13;2.47;;;2.20;99.90;;;;;;2020246;69;25281;-89
2023/10/26 05:10:15;;;;;;;4.10;2.20;;;2.10;99.90;;;;;;2005912;70;25175;-89
2023/10/26 05:13:04;;;;;;;5.13;2.20;;;2.10;99.90;;;;;;2014816;70;25264;-89
2023/10/26 05:15:53;;;;;;;5.60;2.43;;;2.10;99.90;;;;;;2039483;69;25174;-89
2023/10/26 05:18:41;;;;;;;10.67;3.00;;;2.20;99.90;;;;;;2026942;69;25342;-89
2023/10/26 05:21:31;;;;;;;9.03;2.87;;;2.20;99.90;;;;;;2022719;69;25226;-89
2023/10/26 05:24:19;;;;;;;3.40;2.23;;;2.10;99.90;;;;;;2020570;69;25215;-89
2023/10/26 05:27:11;;;;;;;4.73;2.67;;;2.10;99.90;;;;;;2011045;70;25618;-89
2023/10/26 05:29:59;;;;;;;6.20;2.73;;;2.10;99.90;;;;;;2009130;69;25288;-89
2023/10/26 05:32:48;;;;;;;4.83;2.47;;;2.10;99.90;;;;;;2010335;70;25163;-89
2023/10/26 05:35:37;;;;;;;4.43;2.50;;;2.10;99.90;;;;;;2004137;70;25671;-89
2023/10/26 05:41:11;;;;;;;7.47;2.00;;;2.20;99.90;;;;;;1942206;72;28303;-90
2023/10/26 05:44:00;;;;;;;8.23;2.33;;;2.10;99.90;;;;;;1909132;74;25300;-90
2023/10/26 05:46:49;;;;;;;3.77;1.97;;;2.10;99.90;;;;;;1915368;74;25188;-90
2023/10/26 05:49:38;;;;;;;4.37;2.10;;;2.10;99.90;;;;;;1907492;73;25233;-90
2023/10/26 05:52:27;;;;;;;3.83;1.90;;;2.10;99.90;;;;;;1914119;74;25233;-89
2023/10/26 05:55:16;;;;;;;3.87;2.27;;;2.10;99.90;;;;;;1911800;74;25352;-89
2023/10/26 05:58:05;;;;;;;6.50;2.00;;;2.10;99.90;;;;;;1911818;74;25312;-89
2023/10/26 06:00:53;;;;;;;6.07;2.17;;;2.00;99.90;;;;;;1911629;74;25247;-89
2023/10/26 06:03:42;;;;;;;2.93;2.17;;;2.10;99.90;;;;;;1921230;74;25282;-89
2023/10/26 06:09:24;;;;;;;7.70;1.93;;;2.10;99.90;;;;;;1978954;71;26922;-90
2023/10/26 06:12:13;;;;;;;3.10;2.00;;;2.10;99.90;;;;;;1942009;72;25700;-90
2023/10/26 06:15:02;;;;;;;1.90;1.53;;;2.10;99.90;;;;;;1922725;73;25221;-90
2023/10/26 06:20:39;;;;;;;4.40;2.23;;;2.00;99.90;;;;;;1957644;72;27303;-88
2023/10/26 06:23:28;;;;;;;4.23;2.23;;;2.00;99.90;;;;;;1940286;72;25174;-90
2023/10/26 06:26:17;;;;;;;4.53;2.17;;;2.00;99.90;;;;;;1932349;72;25737;-90
2023/10/26 06:29:06;;;;;;;4.73;2.17;;;2.00;99.90;;;;;;1921958;73;25214;-90
2023/10/26 06:31:54;;;;;;;3.33;2.33;;;2.10;99.90;;;;;;1941314;72;25240;-90
2023/10/26 06:34:43;;;;;;;2.73;2.07;;;2.00;99.90;;;;;;1928242;72;25740;-90
2023/10/26 06:37:32;;;;;;;3.10;1.77;;;2.00;99.90;;;;;;1904022;73;25146;-90
2023/10/26 06:40:21;;;;;;;3.93;1.50;;;2.00;99.90;;;;;;1890591;75;25270;-90
2023/10/26 06:43:10;;;;;;;3.63;2.40;;;2.00;99.90;;;;;;1907985;75;25201;-90
2023/10/26 07:02:14;;;;;;;3.17;2.30;;;2.00;99.90;;;;;;1915934;74;26460;-89
2023/10/26 07:07:55;;;;;;;23.27;8.07;;;2.10;99.90;;;;;;1941617;71;27012;-91
2023/10/26 07:10:44;;;;;;;5.10;2.50;;;2.10;99.90;;;;;;1948499;73;25241;-91
2023/10/26 07:13:32;;;;;;;8.67;3.10;;;2.20;99.90;;;;;;1930524;73;25187;-91
2023/10/26 07:16:21;;;;;;;10.53;5.33;;;2.20;99.90;;;;;;1944887;72;25898;-91
2023/10/26 07:19:10;;;;;;;9.00;2.77;;;2.20;99.90;;;;;;1955684;72;25147;-91
2023/10/26 07:21:58;;;;;;;11.03;3.90;;;2.20;99.90;;;;;;1908739;75;25674;-91
2023/10/26 07:24:47;;;;;;;7.77;2.23;;;2.30;99.90;;;;;;1879764;75;25244;-91
2023/10/26 07:27:36;;;;;;;3.60;2.93;;;2.40;99.90;;;;;;1946442;72;25796;-91
2023/10/26 07:30:24;;;;;;;9.07;5.07;;;2.40;99.90;;;;;;1944339;72;25243;-91
2023/10/26 07:33:13;;;;;;;7.00;2.47;;;2.40;99.90;;;;;;1926118;72;25619;-91
2023/10/26 07:39:45;;;;;;;4.53;2.50;;;2.50;99.90;;;;;;1977307;71;27055;-91
2023/10/26 07:42:34;;;;;;;4.43;2.57;;;2.60;99.90;;;;;;2022227;69;25234;-91
2023/10/26 07:45:25;;;;;;;1.50;1.40;;;2.60;99.90;;;;;;2045462;69;25596;-91
2023/10/26 07:51:06;;;;;;;5.77;1.70;;;2.70;99.90;;;;;;1906508;74;27151;-91
2023/10/26 07:53:55;;;;;;;34.13;13.97;;;2.70;99.90;;;;;;1853566;76;25336;-89
2023/10/26 07:56:44;;;;;;;6.57;1.50;;;2.80;99.90;;;;;;1853859;76;25775;-91
2023/10/26 08:05:25;;;;;;;2.57;1.40;;;2.80;99.90;;;;;;1977234;71;26607;-91
2023/10/26 08:08:14;;;;;;;3.37;2.00;;;2.70;99.90;;;;;;2014573;69;25148;-91
2023/10/26 08:11:12;;;;;;;6.50;2.63;;;2.70;99.90;;;;;;2015873;70;26161;-91
2023/10/26 08:14:01;;;;;;;6.67;3.17;;;2.70;99.90;;;;;;2028552;69;25645;-91
2023/10/26 08:16:50;;;;;;;4.90;2.27;;;2.70;99.90;;;;;;2023344;69;25218;-91
2023/10/26 08:19:39;;;;;;;4.50;1.77;;;2.70;99.90;;;;;;2017811;69;25331;-91
2023/10/26 08:22:33;;;;;;;5.53;2.27;;;2.60;99.90;;;;;;2015627;69;25202;-91
2023/10/26 08:25:22;;;;;;;6.27;2.20;;;2.60;99.90;;;;;;2034125;69;25220;-91
2023/10/26 08:28:11;;;;;;;7.63;2.30;;;2.60;99.90;;;;;;2032555;69;25311;-91
2023/10/26 08:31:00;;;;;;;4.20;2.10;;;2.60;99.90;;;;;;2013618;70;25756;-91
2023/10/26 08:34:02;;;;;;;5.43;2.47;;;2.60;99.90;;;;;;2004899;69;25645;-91
2023/10/26 08:36:50;;;;;;;2.40;1.60;;;2.70;99.90;;;;;;2024333;69;25156;-91
2023/10/26 08:39:39;;;;;;;2.00;1.60;;;2.80;99.90;;;;;;2011071;69;25869;-91
2023/10/26 08:42:28;;;;;;;5.63;1.63;;;2.90;99.90;;;;;;1965772;71;25750;-91
2023/10/26 08:48:09;;;;;;;4.20;2.50;;;3.00;99.90;;;;;;1946924;72;27067;-91
2023/10/26 09:19:07;;;;;;;4.00;1.53;;;3.40;99.90;;;;;;1893992;72;26361;-91
2023/10/26 09:35:42;;;;;;;4.93;1.80;;;3.50;99.90;;;;;;1952276;72;27624;-90
2023/10/26 09:41:29;;;;;;;3.40;1.53;;;3.80;99.90;;;;;;1958981;72;27165;-91
2023/10/26 09:44:17;;;;;;;1.80;1.20;;;3.80;99.90;;;;;;1894191;75;25245;-91
2023/10/26 09:49:59;;;;;;;2.73;1.30;;;3.90;99.90;;;;;;1952034;72;26930;-89
2023/10/26 09:52:48;;;;;;;4.00;1.40;;;3.90;99.90;;;;;;1940682;72;25260;-89
2023/10/26 09:55:36;;;;;;;1.63;1.00;;;3.90;99.90;;;;;;1928461;73;25793;-90
2023/10/26 10:01:35;;;;;;;4.03;1.77;;;3.90;99.90;;;;;;1959150;71;27002;-91
2023/10/26 10:04:38;;;;;;;5.23;1.40;;;3.90;99.90;;;;;;1934283;72;25219;-91
2023/10/26 10:07:44;;;;;;;2.73;0.90;;;4.00;99.90;;;;;;1936309;72;25274;-91
2023/10/26 10:10:33;;;;;;;2.97;1.17;;;3.90;99.90;;;;;;1942349;73;25206;-91
2023/10/26 10:13:39;;;;;;;4.90;1.30;;;3.80;99.90;;;;;;1945767;72;25236;-90
2023/10/26 10:16:52;;;;;;;1.20;1.03;;;3.90;99.90;;;;;;1947592;72;25267;-91
2023/10/26 10:19:43;;;;;;;1.73;1.30;;;4.00;99.90;;;;;;1938577;72;25504;-91
2023/10/26 10:22:49;;;;;;;1.83;1.03;;;4.00;99.90;;;;;;1941359;72;25276;-91
2023/10/26 10:28:53;;;;;;;3.57;1.40;;;4.00;99.90;;;;;;1951509;71;27409;-91
2023/10/26 10:31:42;;;;;;;5.13;1.70;;;4.00;99.90;;;;;;1918015;73;25223;-91
2023/10/26 10:34:33;;;;;;;1.40;0.90;;;4.00;99.90;;;;;;1926140;73;25176;-91
2023/10/26 10:37:22;;;;;;;2.90;1.37;;;4.10;99.90;;;;;;1921590;72;25291;-91
2023/10/26 10:40:16;;;;;;;1.00;0.90;;;4.10;99.90;;;;;;1932647;72;25208;-91
2023/10/26 10:43:05;;;;;;;4.40;1.53;;;4.10;99.90;;;;;;1920921;73;25331;-91
2023/10/26 10:45:53;;;;;;;2.40;1.33;;;4.10;99.90;;;;;;1914296;73;25660;-91
2023/10/26 10:49:03;;;;;;;2.23;1.30;;;4.10;99.90;;;;;;1933741;73;25355;-91
2023/10/26 10:51:51;;;;;;;2.13;1.40;;;4.20;99.90;;;;;;1921609;73;25848;-91
2023/10/26 10:57:32;;;;;;;2.37;1.40;;;4.20;99.90;;;;;;1943282;72;26941;-91
2023/10/26 11:00:20;;;;;;;6.77;1.50;;;4.20;99.90;;;;;;1927591;73;25742;-89
2023/10/26 11:06:54;;;;;;;3.53;1.60;;;4.10;99.90;;;;;;1961633;71;27162;-91
2023/10/26 11:09:45;;;;;;;2.70;1.30;;;4.20;99.90;;;;;;1978920;72;25189;-91
2023/10/26 11:12:34;;;;;;;9.37;1.70;;;4.10;99.90;;;;;;1993262;70;25237;-92
2023/10/26 11:15:31;;;;;;;3.13;1.30;;;4.10;99.90;;;;;;1994215;70;25612;-91
2023/10/26 11:18:20;;;;;;;2.57;1.40;;;4.10;99.90;;;;;;1998768;70;25201;-91
2023/10/26 11:21:17;;;;;;;2.53;1.30;;;4.10;99.90;;;;;;1994664;71;25713;-91
2023/10/26 11:39:06;;;;;;;2.70;1.43;;;4.00;99.90;;;;;;2036675;69;26759;-90
2023/10/26 11:44:36;;;;;;;3.57;1.23;;;3.90;99.90;;;;;;1982697;71;27071;-91
2023/10/26 11:47:24;;;;;;;3.50;1.50;;;3.80;99.90;;;;;;1961948;71;25313;-91
2023/10/26 11:50:24;;;;;;;3.13;1.50;;;3.90;99.90;;;;;;1973251;71;25221;-90
2023/10/26 11:53:13;;;;;;;4.43;1.30;;;3.90;99.90;;;;;;1976927;71;25165;-91
2023/10/26 11:56:01;;;;;;;5.93;1.40;;;3.90;99.90;;;;;;1966909;71;25204;-91
2023/10/26 11:58:51;;;;;;;2.53;1.73;;;4.00;99.90;;;;;;1971352;72;25162;-89
2023/10/26 12:01:40;;;;;;;5.50;1.77;;;4.10;99.90;;;;;;1956629;72;25752;-92
2023/10/26 12:04:29;;;;;;;5.13;1.43;;;4.10;99.90;;;;;;1966776;71;25259;-90
2023/10/26 12:07:18;;;;;;;5.53;1.57;;;4.00;99.90;;;;;;1967818;72;25306;-91
2023/10/26 12:10:07;;;;;;;1.50;1.30;;;4.00;99.90;;;;;;1968204;71;25208;-91
2023/10/26 12:12:58;;;;;;;1.10;1.00;;;4.10;99.90;;;;;;1967613;71;26488;-90
2023/10/26 12:29:15;;;;;;;2.30;1.27;;;4.10;99.90;;;;;;1973042;71;27174;-91
2023/10/26 12:34:55;;;;;;;1.47;1.00;;;4.00;99.90;;;;;;1968674;72;26934;-91
2023/10/26 12:37:44;;;;;;;3.50;1.60;;;4.00;99.90;;;;;;1962661;72;25207;-91
2023/10/26 12:40:34;;;;;;;3.90;1.30;;;4.00;99.90;;;;;;1942999;73;25221;-89
2023/10/26 12:43:22;;;;;;;1.17;0.93;;;4.10;99.90;;;;;;1946728;72;25302;-90
2023/10/26 12:46:10;;;;;;;2.97;1.77;;;4.10;99.90;;;;;;1935026;72;25229;-90
2023/10/26 12:48:59;;;;;;;2.93;1.63;;;4.10;99.90;;;;;;1939209;73;25386;-91
2023/10/26 13:08:09;;;;;;;1.33;1.00;;;4.00;99.90;;;;;;1944142;72;26971;-91
2023/10/26 13:10:57;;;;;;;1.97;1.30;;;4.00;99.90;;;;;;1934664;72;25277;-89
2023/10/26 13:13:46;;;;;;;1.50;1.40;;;4.00;99.90;;;;;;1944971;73;25275;-91
2023/10/26 13:16:35;;;;;;;1.70;1.40;;;4.00;99.90;;;;;;1943176;72;25664;-91
2023/10/26 13:19:23;;;;;;;2.27;1.50;;;4.00;99.90;;;;;;1944956;73;25221;-91
2023/10/26 13:22:12;;;;;;;1.40;1.30;;;4.00;99.90;;;;;;1938912;72;25228;-89
2023/10/26 13:25:00;;;;;;;1.77;1.10;;;4.00;99.90;;;;;;1950063;72;25249;-91
2023/10/26 13:27:49;;;;;;;3.20;1.40;;;4.00;99.90;;;;;;1943341;72;25216;-91
2023/10/26 13:30:37;;;;;;;4.47;1.60;;;4.10;99.90;;;;;;1935823;72;25252;-89
2023/10/26 13:33:27;;;;;;;5.20;1.50;;;4.10;99.90;;;;;;1929340;72;25227;-89
2023/10/26 13:36:16;;;;;;;2.70;1.40;;;4.10;99.90;;;;;;1950152;72;25256;-90
2023/10/26 13:39:05;;;;;;;2.17;1.50;;;4.10;99.90;;;;;;1937623;73;25295;-90
2023/10/26 13:41:53;;;;;;;2.37;0.97;;;4.10;99.90;;;;;;1939696;72;25233;-90
2023/10/26 13:44:42;;;;;;;6.00;1.33;;;4.10;99.90;;;;;;1871628;74;25246;-90
2023/10/26 13:50:25;;;;;;;2.53;1.47;;;3.90;99.90;;;;;;1953585;72;27185;-90
2023/10/26 13:53:14;;;;;;;1.73;1.63;;;3.90;99.90;;;;;;1929777;73;25658;-91
2023/10/26 13:56:03;;;;;;;2.33;1.30;;;3.90;99.90;;;;;;1929198;73;25263;-91
2023/10/26 13:58:51;;;;;;;6.67;2.07;;;3.90;99.90;;;;;;1890030;75;25749;-91
2023/10/26 14:01:40;;;;;;;2.10;1.43;;;4.00;99.90;;;;;;1937090;73;25313;-89
2023/10/26 14:07:16;;;;;;;3.73;1.40;;;4.00;99.90;;;;;;1954476;72;27152;-91
2023/10/26 14:10:06;;;;;;;2.07;1.50;;;3.90;99.90;;;;;;1934175;72;25706;-91
2023/10/26 14:15:40;;;;;;;1.57;1.43;;;3.90;99.90;;;;;;1941337;72;27033;-91
2023/10/26 14:18:28;;;;;;;4.17;1.50;;;3.90;99.90;;;;;;1921031;73;25237;-91
2023/10/26 14:21:17;;;;;;;3.03;1.17;;;3.90;99.90;;;;;;1922356;73;25712;-91
2023/10/26 14:24:10;;;;;;;3.10;1.60;;;3.90;99.90;;;;;;1938482;73;25268;-91
2023/10/26 14:26:57;;;;;;;3.70;1.50;;;3.80;99.90;;;;;;1926113;73;25274;-91
2023/10/26 14:29:46;;;;;;;4.07;1.43;;;3.80;99.90;;;;;;1933686;73;25170;-91
2023/10/26 14:32:34;;;;;;;2.00;1.17;;;3.70;99.90;;;;;;1919074;73;25591;-91
2023/10/26 14:35:22;;;;;;;2.00;1.70;;;3.70;99.90;;;;;;1929597;73;26468;-91
2023/10/26 14:38:12;;;;;;;5.53;1.50;;;3.80;99.90;;;;;;1924215;73;25193;-90
2023/10/26 14:41:01;;;;;;;2.43;1.50;;;3.80;99.90;;;;;;1921683;73;25783;-90
2023/10/26 14:43:50;;;;;;;6.00;1.77;;;3.70;99.90;;;;;;1888285;75;25884;-90
2023/10/26 14:46:38;;;;;;;2.93;1.20;;;3.70;99.90;;;;;;1892749;73;25180;-90
2023/10/26 14:49:27;;;;;;;1.57;1.13;;;3.80;99.90;;;;;;1890713;75;25262;-90
2023/10/26 14:52:16;;;;;;;3.60;1.40;;;3.70;99.90;;;;;;1890895;75;25291;-90
2023/10/26 14:58:58;;;;;;;3.23;2.10;;;3.70;99.90;;;;;;1973485;71;26181;-91
2023/10/26 15:01:46;;;;;;;2.40;1.20;;;3.70;99.90;;;;;;2015865;69;25246;-91
2023/10/26 15:04:35;;;;;;;21.40;8.40;;;3.70;99.90;;;;;;2011619;69;25194;-91
2023/10/26 15:07:23;;;;;;;4.37;1.43;;;3.60;99.90;;;;;;2010272;69;25677;-89
2023/10/26 15:10:12;;;;;;;12.60;4.20;;;3.60;99.90;;;;;;2006966;70;25285;-90
2023/10/26 15:13:03;;;;;;;5.90;2.70;;;3.70;99.90;;;;;;2018750;69;25218;-91
2023/10/26 15:30:13;;;;;;;4.40;2.10;;;3.60;99.90;;;;;;1906761;74;27058;-90
2023/10/26 15:39:16;;;;;;;5.77;2.60;;;3.80;99.90;;;;;;1949708;72;26861;-90
2023/10/26 15:42:06;;;;;;;3.57;2.47;;;3.70;99.90;;;;;;1926613;73;25233;-89
2023/10/26 15:44:55;;;;;;;1.17;1.07;;;3.60;99.90;;;;;;2014422;70;25212;-91
2023/10/26 15:47:44;;;;;;;2.30;1.50;;;3.60;99.90;;;;;;2023950;70;25297;-91
2023/10/26 15:50:33;;;;;;;4.53;1.30;;;3.60;99.90;;;;;;2020885;70;25781;-91
2023/10/26 15:53:22;;;;;;;4.30;1.90;;;3.50;99.90;;;;;;1996090;70;25740;-91
2023/10/26 15:56:11;;;;;;;3.73;1.90;;;3.50;99.90;;;;;;2016720;70;25388;-91
2023/10/26 15:59:00;;;;;;;4.93;2.17;;;3.50;99.90;;;;;;2005897;70;25694;-90
2023/10/26 16:01:48;;;;;;;1.50;1.00;;;3.50;99.90;;;;;;2016160;70;25227;-91
2023/10/26 16:04:37;;;;;;;19.87;6.80;;;3.50;99.90;;;;;;2018787;70;25192;-91
2023/10/26 16:10:09;;;;;;;10.87;4.77;;;3.50;99.90;;;;;;1931259;72;27139;-91
2023/10/26 16:12:58;;;;;;;7.53;3.53;;;3.50;99.90;;;;;;1869240;75;25327;-91
2023/10/26 16:15:46;;;;;;;5.43;2.63;;;3.50;99.90;;;;;;1857574;76;25192;-90
2023/10/26 16:18:35;;;;;;;10.40;5.80;;;3.50;99.90;;;;;;1866123;75;25745;-89
2023/10/26 16:21:24;;;;;;;7.67;3.33;;;3.60;99.90;;;;;;1835634;76;25309;-89
2023/10/26 16:24:13;;;;;;;5.70;2.63;;;3.70;99.90;;;;;;1849924;76;25289;-89
2023/10/26 16:27:02;;;;;;;3.00;2.10;;;3.60;99.90;;;;;;1850559;76;25225;-89
2023/10/26 16:29:51;;;;;;;6.20;2.03;;;3.40;99.90;;;;;;1902872;73;25310;-89
2023/10/26 16:32:40;;;;;;;4.63;1.87;;;3.50;99.90;;;;;;1865211;76;25201;-88
2023/10/26 16:35:30;;;;;;;3.27;1.90;;;3.50;99.90;;;;;;1835531;76;25331;-88
2023/10/26 16:38:19;;;;;;;5.07;2.10;;;3.50;99.90;;;;;;1904206;73;25224;-88
2023/10/26 16:41:07;;;;;;;6.83;3.43;;;3.50;99.90;;;;;;1903775;73;25279;-89
2023/10/26 16:43:56;;;;;;;5.13;1.73;;;3.40;99.90;;;;;;1831885;76;26654;-88
2023/10/26 16:46:44;;;;;;;2.40;1.63;;;3.30;99.90;;;;;;1812532;77;25277;-89
2023/10/26 16:52:15;;;;;;;4.37;1.90;;;3.40;99.90;;;;;;1924309;72;27036;-90
2023/10/26 16:55:05;;;;;;;1.73;1.37;;;3.40;99.90;;;;;;1860069;76;25197;-87
2023/10/26 16:57:54;;;;;;;1.83;1.47;;;3.30;99.90;;;;;;1844494;76;25230;-88
2023/10/26 17:00:44;;;;;;;2.47;1.90;;;3.20;99.90;;;;;;1899360;73;25281;-88
2023/10/26 17:03:33;;;;;;;5.10;1.70;;;3.30;99.90;;;;;;1868531;75;25316;-88
2023/10/26 17:06:22;;;;;;;2.57;1.50;;;3.30;99.90;;;;;;1878305;75;25321;-88
2023/10/26 17:09:10;;;;;;;4.77;1.70;;;3.30;99.90;;;;;;1848064;76;25698;-89
2023/10/26 17:11:59;;;;;;;4.07;1.80;;;3.30;99.90;;;;;;1864019;75;25288;-87
2023/10/26 17:14:48;;;;;;;2.77;1.67;;;3.30;99.90;;;;;;1834414;76;25255;-88
2023/10/26 17:17:37;;;;;;;6.23;1.67;;;3.30;99.90;;;;;;1869836;75;25285;-88
2023/10/26 17:20:25;;;;;;;3.57;1.70;;;3.20;99.90;;;;;;1844580;76;25221;-88
2023/10/26 17:23:13;;;;;;;4.63;1.63;;;3.10;99.90;;;;;;1869822;75;25299;-88
2023/10/26 17:26:01;;;;;;;7.43;1.50;;;3.10;99.90;;;;;;1832942;76;25730;-88
2023/10/26 17:28:50;;;;;;;2.73;1.57;;;3.10;99.90;;;;;;1904374;73;25168;-88
2023/10/26 17:34:26;;;;;;;7.53;2.07;;;3.10;99.90;;;;;;1940604;72;27483;-90
2023/10/26 17:40:36;;;;;;;3.77;1.87;;;3.10;99.90;;;;;;1991419;71;26380;-90
2023/10/26 17:43:25;;;;;;;4.40;1.80;;;3.10;99.90;;;;;;1949014;72;25709;-89
2023/10/26 17:48:55;;;;;;;2.20;1.37;;;3.10;99.90;;;;;;1943084;72;27132;-89
2023/10/26 17:51:44;;;;;;;4.73;1.70;;;3.10;99.90;;;;;;1933876;73;25742;-88
2023/10/26 17:54:33;;;;;;;2.33;2.00;;;3.00;99.90;;;;;;1919510;73;25315;-89
2023/10/26 17:57:21;;;;;;;4.67;1.97;;;3.10;99.90;;;;;;1922177;73;25487;-89
2023/10/26 18:00:11;;;;;;;2.67;2.07;;;3.00;99.90;;;;;;1920052;73;25319;-88
2023/10/26 18:03:00;;;;;;;4.33;2.00;;;3.00;99.90;;;;;;1916441;73;25234;-89
2023/10/26 18:05:55;;;;;;;3.20;1.80;;;3.00;99.90;;;;;;1921655;73;25237;-88
2023/10/26 18:08:44;;;;;;;4.23;2.03;;;3.00;99.90;;;;;;1933159;73;25176;-88
2023/10/26 18:11:33;;;;;;;2.60;1.70;;;3.00;99.90;;;;;;1924637;73;25318;-89
2023/10/26 18:14:23;;;;;;;2.07;1.80;;;3.00;99.90;;;;;;1926614;73;25271;-90
2023/10/26 18:17:10;;;;;;;3.67;1.73;;;2.90;99.90;;;;;;1921417;73;25223;-88
2023/10/26 18:19:59;;;;;;;5.43;1.87;;;2.90;99.90;;;;;;1918078;73;25324;-89
2023/10/26 18:25:53;;;;;;;6.03;1.90;;;2.90;99.90;;;;;;1957592;72;31792;-89
2023/10/26 18:31:28;;;;;;;4.20;1.80;;;2.80;99.90;;;;;;1940881;72;27457;-91
2023/10/26 18:34:19;;;;;;;2.70;1.60;;;2.90;99.90;;;;;;1917742;73;25843;-91
2023/10/26 18:37:08;;;;;;;4.97;2.80;;;2.80;99.90;;;;;;1921808;73;25807;-91
2023/10/26 18:40:00;;;;;;;2.87;1.70;;;2.80;99.90;;;;;;1926487;73;25712;-92
2023/10/26 18:57:41;;;;;;;6.23;2.70;;;2.80;99.90;;;;;;2023476;69;26875;-92
2023/10/26 19:16:20;;;;;;;3.17;1.80;;;2.90;99.90;;;;;;1928558;73;26269;-91
2023/10/26 19:35:34;;;;;;;2.73;1.87;;;2.80;99.90;;;;;;1928507;73;26310;-88
2023/10/26 20:01:27;;;;;;;2.37;1.70;;;2.50;99.90;;;;;;1920525;72;26466;-91
2023/10/26 20:19:49;;;;;;;3.57;2.40;;;2.50;99.90;;;;;;1881727;75;32015;-89
2023/10/26 20:47:33;;;;;;;3.93;1.37;;;2.20;99.90;;;;;;2006728;70;26721;-91
2023/10/26 20:50:22;;;;;;;4.10;1.57;;;2.10;99.90;;;;;;1964203;72;25312;-91
2023/10/26 20:53:10;;;;;;;6.47;2.20;;;2.00;99.90;;;;;;1956776;72;25729;-91
2023/10/26 21:10:15;;;;;;;6.07;2.30;;;2.00;99.90;;;;;;1913102;72;26982;-89
2023/10/26 22:45:50;;;;;;;2.17;1.40;;;1.70;99.90;;;;;;1961846;71;27535;-91
2023/10/26 22:48:39;;;;;;;2.17;1.50;;;1.70;99.90;;;;;;1896304;74;25237;-90
2023/10/26 22:51:28;;;;;;;7.53;2.47;;;1.70;99.90;;;;;;1897777;74;25162;-91
2023/10/26 22:54:16;;;;;;;4.63;2.37;;;1.70;99.90;;;;;;1893215;74;25234;-90
2023/10/26 22:57:06;;;;;;;6.07;2.50;;;1.80;99.90;;;;;;1904150;74;25299;-91
2023/10/26 22:59:56;;;;;;;4.73;2.10;;;1.80;99.90;;;;;;1894978;74;25259;-91
2023/10/26 23:21:44;;;;;;;2.57;1.77;;;1.90;99.90;;;;;;1825953;77;25304;-91
2023/10/26 23:25:28;;;;;;;3.27;2.20;;;1.90;99.90;;;;;;1832284;77;25238;-89
2023/10/26 23:54:14;;;;;;;5.30;2.20;;;1.90;99.90;;;;;;1873677;75;25241;-91
2023/10/26 23:58:01;;;;;;;3.60;2.03;;;1.90;99.90;;;;;;1902300;73;25312;-89
